Time;durP1;ratioP1;P1;durP2;ratioP2;P2;SDS_P1;SDS_P2;PMS_P1;PMS_P2;Temp;Humidity;BMP_temperature;BMP_pressure;BME280_temperature;BME280_humidity;BME280_pressure;Samples;Min_cycle;Max_cycle;Signal;HPM_P1;HPM_P2
2022/10/29 00:35:08;;;;;;;3.42;0.93;;;13.00;99.90;;;;;;5609480;22;16987789;-90
2022/10/29 00:47:58;;;;;;;3.97;1.02;;;13.30;99.90;;;;;;6044661;23;20028;-89
2022/10/29 00:51:10;;;;;;;;;;;;;;;;;;;;;
2022/10/29 01:04:48;;;;;;;3.30;1.10;;;12.70;99.90;;;;;;5904289;24;20013;-90
2022/10/29 01:07:47;;;;;;;6.43;1.10;;;12.70;99.90;;;;;;5914687;24;20107;-91
2022/10/29 04:14:09;;;;;;;;;;;;;;;;;;;;;
2022/10/29 05:15:34;;;;;;;1.00;0.70;;;12.60;99.90;;;;;;6248332;22;20733;-89
2022/10/29 05:18:00;;;;;;;1.08;0.70;;;12.60;99.90;;;;;;6240356;22;20302;-87
2022/10/29 05:20:26;;;;;;;1.20;0.70;;;12.60;99.90;;;;;;6245073;23;20454;-88
2022/10/29 05:23:05;;;;;;;1.77;0.90;;;12.70;99.90;;;;;;6218471;23;20024;-88
2022/10/29 05:25:33;;;;;;;1.48;0.70;;;12.60;99.90;;;;;;6218720;23;20016;-88
2022/10/29 05:28:13;;;;;;;0.95;0.60;;;12.50;99.90;;;;;;6218410;23;20016;-88
2022/10/29 05:30:40;;;;;;;1.02;0.70;;;12.60;99.90;;;;;;6193395;23;20028;-88
2022/10/29 05:33:10;;;;;;;1.10;0.52;;;12.60;99.90;;;;;;6245487;23;20012;-88
2022/10/29 05:35:36;;;;;;;0.90;0.50;;;12.50;99.90;;;;;;6245517;22;20018;-88
2022/10/29 05:38:03;;;;;;;0.65;0.45;;;12.60;99.90;;;;;;6243677;23;20074;-88
2022/10/29 05:40:30;;;;;;;0.93;0.50;;;13.60;99.90;;;;;;6243747;23;20455;-88
2022/10/29 05:42:55;;;;;;;1.23;0.65;;;12.50;99.90;;;;;;6218316;23;20027;-87
2022/10/29 05:45:21;;;;;;;0.70;0.50;;;13.00;99.90;;;;;;6244035;23;20020;-87
2022/10/29 05:47:47;;;;;;;0.82;0.50;;;12.60;99.90;;;;;;6243741;23;20070;-88
2022/10/29 05:50:13;;;;;;;1.02;0.60;;;12.60;99.90;;;;;;6243565;23;20028;-87
2022/10/29 05:52:39;;;;;;;0.63;0.43;;;12.90;99.90;;;;;;6245694;22;20023;-87
2022/10/29 05:55:05;;;;;;;2.00;0.70;;;12.60;99.90;;;;;;6245401;22;20027;-88
2022/10/29 05:57:31;;;;;;;1.13;0.57;;;12.60;99.90;;;;;;6243474;23;20024;-88
2022/10/29 05:59:57;;;;;;;1.30;0.70;;;12.60;99.90;;;;;;6218427;23;20466;-87
2022/10/29 06:02:23;;;;;;;1.63;0.65;;;12.70;99.90;;;;;;6243718;23;20040;-88
2022/10/29 06:04:50;;;;;;;1.50;0.70;;;12.60;99.90;;;;;;6245677;23;20016;-87
2022/10/29 06:07:16;;;;;;;1.67;0.80;;;12.60;99.90;;;;;;6245607;23;20123;-88
2022/10/29 06:09:42;;;;;;;1.58;0.80;;;12.60;99.90;;;;;;6247560;22;20016;-88
2022/10/29 06:12:08;;;;;;;1.15;0.60;;;12.60;99.90;;;;;;6245828;23;20017;-88
2022/10/29 06:14:33;;;;;;;1.25;0.60;;;12.60;99.90;;;;;;6245546;23;20042;-88
2022/10/29 06:17:00;;;;;;;1.20;0.50;;;13.00;99.90;;;;;;6245556;23;20019;-88
2022/10/29 06:19:26;;;;;;;1.38;0.70;;;12.70;99.90;;;;;;6245434;23;20048;-88
2022/10/29 06:21:52;;;;;;;1.50;0.60;;;12.60;99.90;;;;;;6247231;22;20035;-88
2022/10/29 06:24:18;;;;;;;1.05;0.70;;;12.60;99.90;;;;;;6247301;22;20008;-88
2022/10/29 06:26:43;;;;;;;0.85;0.52;;;12.40;99.90;;;;;;6245317;23;20062;-88
2022/10/29 06:29:09;;;;;;;0.80;0.55;;;12.40;99.90;;;;;;6247264;22;20396;-88
2022/10/29 06:31:35;;;;;;;1.45;0.70;;;12.60;99.90;;;;;;6245804;23;20123;-88
2022/10/29 06:34:00;;;;;;;1.27;0.60;;;12.60;99.90;;;;;;6245470;23;20016;-88
2022/10/29 06:36:26;;;;;;;0.98;0.60;;;12.60;99.90;;;;;;6245054;23;20047;-87
2022/10/29 06:38:52;;;;;;;1.30;0.70;;;12.60;99.90;;;;;;6245479;23;20050;-87
2022/10/29 06:41:17;;;;;;;1.30;0.70;;;12.60;99.90;;;;;;6245406;23;20020;-87
2022/10/29 06:43:43;;;;;;;0.98;0.60;;;12.60;99.90;;;;;;6245684;23;20043;-87
2022/10/29 06:46:09;;;;;;;1.85;0.98;;;13.10;99.90;;;;;;6245742;23;20035;-88
2022/10/29 06:48:34;;;;;;;1.33;0.88;;;13.00;99.90;;;;;;6247130;22;20067;-88
2022/10/29 06:51:00;;;;;;;1.30;0.80;;;13.50;99.90;;;;;;6245588;23;20020;-87
2022/10/29 06:53:26;;;;;;;1.58;0.85;;;12.90;99.90;;;;;;6245286;23;20028;-87
2022/10/29 06:55:52;;;;;;;1.70;0.90;;;12.60;99.90;;;;;;6246476;22;20038;-87
2022/10/29 06:58:19;;;;;;;1.63;0.90;;;12.60;99.90;;;;;;6247233;22;20046;-88
2022/10/29 07:00:46;;;;;;;1.70;0.90;;;12.60;99.90;;;;;;6245333;23;20715;-87
2022/10/29 07:03:19;;;;;;;1.88;0.80;;;12.80;99.90;;;;;;6247372;22;20078;-87
2022/10/29 07:05:46;;;;;;;1.77;0.93;;;12.60;99.90;;;;;;6245075;23;20047;-88
2022/10/29 07:08:12;;;;;;;1.35;0.70;;;12.70;99.90;;;;;;6245251;23;20066;-87
2022/10/29 07:14:19;;;;;;;1.92;0.90;;;12.70;99.90;;;;;;6247075;23;20015;-87
2022/10/29 07:16:45;;;;;;;1.58;0.80;;;12.70;99.90;;;;;;6247021;22;20020;-88
2022/10/29 07:19:10;;;;;;;1.02;0.70;;;12.70;99.90;;;;;;6245501;23;20023;-88
2022/10/29 07:21:36;;;;;;;1.83;1.10;;;12.80;99.90;;;;;;6245414;23;20035;-87
2022/10/29 07:24:02;;;;;;;2.40;1.05;;;12.70;99.90;;;;;;6245501;23;20026;-87
2022/10/29 07:30:49;;;;;;;1.33;0.80;;;12.80;99.90;;;;;;6268996;22;20028;-87
2022/10/29 07:33:16;;;;;;;1.30;0.85;;;12.80;99.90;;;;;;6273485;22;20044;-88
2022/10/29 07:35:45;;;;;;;1.60;0.80;;;12.80;99.90;;;;;;6273692;22;20023;-88
2022/10/29 07:38:11;;;;;;;1.30;0.63;;;12.80;99.90;;;;;;6274037;22;20007;-89
2022/10/29 07:40:47;;;;;;;1.75;0.80;;;12.80;99.90;;;;;;6273418;22;20027;-87
2022/10/29 07:43:13;;;;;;;2.13;0.90;;;12.90;99.90;;;;;;6273599;22;20092;-87
2022/10/29 07:45:44;;;;;;;2.35;0.90;;;12.90;99.90;;;;;;6274333;22;20000;-89
2022/10/29 07:48:10;;;;;;;1.38;0.80;;;12.90;99.90;;;;;;6273996;22;20011;-89
2022/10/29 07:50:37;;;;;;;1.55;0.70;;;12.90;99.90;;;;;;6273713;22;20031;-88
2022/10/29 07:53:42;;;;;;;2.15;0.77;;;12.90;99.90;;;;;;6273321;22;20016;-92
2022/10/29 07:56:26;;;;;;;1.80;0.85;;;13.00;99.90;;;;;;6244350;23;20020;-89
2022/10/29 07:58:52;;;;;;;1.90;0.93;;;13.00;99.90;;;;;;6245829;23;20024;-88
2022/10/29 08:01:27;;;;;;;3.72;1.27;;;13.10;99.90;;;;;;6246044;23;20085;-90
2022/10/29 08:03:53;;;;;;;3.57;1.20;;;13.00;99.90;;;;;;6254750;23;20144;-87
2022/10/29 08:06:18;;;;;;;2.78;1.00;;;13.50;99.90;;;;;;6256259;23;20259;-88
2022/10/29 08:08:44;;;;;;;2.40;1.20;;;13.30;99.90;;;;;;6245444;23;20316;-88
2022/10/29 08:11:10;;;;;;;2.10;1.17;;;13.20;99.90;;;;;;6245274;23;20032;-88
2022/10/29 08:13:35;;;;;;;3.25;1.08;;;13.20;99.90;;;;;;6246961;22;20015;-89
2022/10/29 08:16:01;;;;;;;3.15;0.90;;;13.30;99.90;;;;;;6247749;22;20091;-88
2022/10/29 08:18:26;;;;;;;2.95;1.02;;;13.90;99.90;;;;;;6244780;23;20020;-87
2022/10/29 08:20:53;;;;;;;2.17;1.02;;;13.40;99.90;;;;;;6247075;22;20028;-88
2022/10/29 08:23:19;;;;;;;2.15;0.90;;;13.40;99.90;;;;;;6245091;23;20016;-88
2022/10/29 08:25:44;;;;;;;2.45;0.80;;;13.60;99.90;;;;;;6246248;22;20027;-88
2022/10/29 08:28:13;;;;;;;2.65;1.00;;;13.60;99.90;;;;;;6244439;23;20024;-90
2022/10/29 08:30:39;;;;;;;4.28;1.15;;;13.60;99.90;;;;;;6246012;22;20074;-88
2022/10/29 08:33:05;;;;;;;2.38;0.95;;;13.70;99.90;;;;;;6244311;23;20016;-87
2022/10/29 08:35:32;;;;;;;3.85;1.60;;;13.70;99.90;;;;;;6244636;23;20027;-89
2022/10/29 08:37:57;;;;;;;3.97;1.10;;;13.80;99.90;;;;;;6244471;23;20024;-88
2022/10/29 08:40:28;;;;;;;3.92;1.25;;;13.80;99.90;;;;;;6244751;23;20334;-86
2022/10/29 08:43:18;;;;;;;4.35;1.65;;;13.90;99.90;;;;;;6246101;22;20016;-88
2022/10/29 08:46:11;;;;;;;4.05;1.55;;;14.10;99.90;;;;;;6245938;23;20020;-92
2022/10/29 08:48:57;;;;;;;5.05;1.60;;;13.90;99.90;;;;;;6183228;23;20021;-92
2022/10/29 08:51:37;;;;;;;5.47;1.73;;;14.00;99.90;;;;;;6183259;23;20104;-87
2022/10/29 08:54:03;;;;;;;4.47;1.55;;;14.00;99.90;;;;;;6183176;23;20079;-87
2022/10/29 08:56:32;;;;;;;4.85;1.52;;;14.00;99.90;;;;;;6157602;23;20044;-88
2022/10/29 08:59:14;;;;;;;4.03;1.60;;;14.00;99.90;;;;;;6158263;23;20025;-90
2022/10/29 09:01:40;;;;;;;5.20;1.55;;;14.10;99.90;;;;;;6183035;23;20013;-89
2022/10/29 09:04:25;;;;;;;6.90;1.60;;;14.20;99.90;;;;;;6183894;23;20352;-89
2022/10/29 09:07:36;;;;;;;8.85;2.20;;;14.20;99.90;;;;;;6159914;23;20024;-91
2022/10/29 09:10:20;;;;;;;4.28;1.88;;;14.30;99.90;;;;;;6095034;23;20030;-87
2022/10/29 09:13:01;;;;;;;4.55;2.10;;;14.30;99.90;;;;;;6094902;23;20018;-90
2022/10/29 09:15:51;;;;;;;6.13;2.03;;;14.40;99.90;;;;;;6094881;23;20015;-86
2022/10/29 09:18:20;;;;;;;5.68;2.10;;;14.40;99.90;;;;;;6095686;23;20024;-93
2022/10/29 09:20:57;;;;;;;5.90;2.20;;;14.30;99.90;;;;;;6095883;23;20417;-92
2022/10/29 09:23:29;;;;;;;6.40;2.53;;;14.40;99.90;;;;;;6094787;23;20069;-89
2022/10/29 09:26:10;;;;;;;7.78;2.50;;;14.40;99.90;;;;;;6110853;23;20057;-91
2022/10/29 09:29:18;;;;;;;7.88;2.85;;;14.70;99.90;;;;;;6123057;23;20497;-92
2022/10/29 09:31:52;;;;;;;6.72;2.85;;;14.50;99.90;;;;;;6013267;23;20110;-88
2022/10/29 09:34:30;;;;;;;7.72;2.63;;;14.40;99.90;;;;;;6036475;23;20439;-88
2022/10/29 09:36:57;;;;;;;9.65;3.42;;;14.50;99.90;;;;;;6036995;23;20075;-92
2022/10/29 09:39:35;;;;;;;7.78;3.42;;;14.60;99.90;;;;;;6038421;23;20071;-89
2022/10/29 09:42:09;;;;;;;6.20;2.85;;;15.30;99.90;;;;;;6015360;23;20098;-91
2022/10/29 09:44:56;;;;;;;9.05;3.47;;;14.70;99.90;;;;;;6046730;23;20030;-88
2022/10/29 09:47:35;;;;;;;9.45;3.25;;;14.70;99.90;;;;;;6130468;23;20088;-86
2022/10/29 09:50:23;;;;;;;7.35;3.10;;;14.70;99.90;;;;;;6130447;23;20026;-89
2022/10/29 09:52:49;;;;;;;4.55;2.55;;;14.80;99.90;;;;;;6154762;23;20045;-89
2022/10/29 09:55:17;;;;;;;10.52;4.05;;;14.90;99.90;;;;;;6154941;23;20017;-94
2022/10/29 09:57:58;;;;;;;6.88;2.97;;;14.80;99.90;;;;;;6157098;23;20018;-90
2022/10/29 10:00:32;;;;;;;5.45;2.55;;;14.60;99.90;;;;;;6210664;22;20024;-90
2022/10/29 10:03:17;;;;;;;6.32;2.42;;;15.00;99.90;;;;;;6248604;23;20063;-93
2022/10/29 10:06:04;;;;;;;5.50;2.83;;;14.90;99.90;;;;;;6247472;23;20091;-92
2022/10/29 10:08:31;;;;;;;8.93;3.58;;;15.00;99.90;;;;;;6247248;23;20103;-87
2022/10/29 10:11:05;;;;;;;6.50;2.45;;;15.10;99.90;;;;;;6247812;22;20091;-85
2022/10/29 10:13:51;;;;;;;10.20;3.72;;;15.00;99.90;;;;;;6245585;23;20070;-87
2022/10/29 10:16:59;;;;;;;8.50;3.35;;;15.00;99.90;;;;;;6247868;22;20330;-89
2022/10/29 10:19:28;;;;;;;6.88;3.50;;;14.70;99.90;;;;;;6134497;23;20072;-89
2022/10/29 10:22:04;;;;;;;5.85;3.00;;;15.10;99.90;;;;;;6161151;23;20025;-90
2022/10/29 10:24:37;;;;;;;6.70;3.40;;;15.10;99.90;;;;;;6161281;23;20379;-95
2022/10/29 10:27:29;;;;;;;8.10;3.90;;;15.30;99.90;;;;;;6163543;23;20059;-95
2022/10/29 10:30:11;;;;;;;5.90;3.28;;;15.40;99.90;;;;;;6155967;23;20020;-89
2022/10/29 10:32:37;;;;;;;6.63;3.17;;;15.50;99.90;;;;;;6158828;23;20129;-85
2022/10/29 10:35:29;;;;;;;5.95;2.63;;;15.50;99.90;;;;;;6184109;23;20351;-85
2022/10/29 10:41:04;;;;;;;7.57;3.42;;;15.70;99.90;;;;;;6180198;23;20028;-91
2022/10/29 10:43:29;;;;;;;;;;;15.70;99.90;;;;;;6159527;23;20025;-86
2022/10/29 10:46:02;;;;;;;7.45;3.42;;;15.80;99.90;;;;;;6183911;23;19922;-91
2022/10/29 10:48:31;;;;;;;5.57;2.72;;;15.90;99.90;;;;;;6159414;23;20092;-89
2022/10/29 10:51:22;;;;;;;5.90;3.30;;;15.60;99.90;;;;;;6184949;23;20044;-87
2022/10/29 10:53:49;;;;;;;7.45;3.70;;;15.60;99.90;;;;;;6183528;23;20383;-87
2022/10/29 10:56:20;;;;;;;8.43;3.90;;;15.90;99.90;;;;;;6223153;23;20068;-86
2022/10/29 10:59:02;;;;;;;5.72;2.60;;;16.00;99.90;;;;;;6244020;23;20020;-87
2022/10/29 11:01:34;;;;;;;6.20;2.53;;;16.10;99.90;;;;;;6277622;22;20020;-87
2022/10/29 11:04:17;;;;;;;4.28;2.38;;;16.20;99.90;;;;;;6276751;22;20016;-88
2022/10/29 11:06:49;;;;;;;6.18;2.58;;;16.20;99.90;;;;;;6249781;22;20092;-87
2022/10/29 11:09:27;;;;;;;7.35;2.83;;;16.30;99.90;;;;;;6249896;22;20043;-87
2022/10/29 11:12:05;;;;;;;6.38;2.53;;;16.40;99.90;;;;;;6276868;22;20069;-87
2022/10/29 11:14:54;;;;;;;6.00;2.65;;;16.40;99.90;;;;;;6279547;22;20015;-88
2022/10/29 11:17:53;;;;;;;6.45;2.30;;;16.40;99.90;;;;;;6251872;22;20091;-87
2022/10/29 11:20:26;;;;;;;5.95;2.35;;;16.40;99.90;;;;;;6277270;22;20400;-88
2022/10/29 11:23:00;;;;;;;5.95;2.08;;;16.50;99.90;;;;;;6276778;22;20055;-86
2022/10/29 11:25:34;;;;;;;7.00;2.55;;;16.50;99.90;;;;;;6249670;22;20023;-87
2022/10/29 11:28:46;;;;;;;4.88;1.73;;;16.60;99.90;;;;;;6249669;22;20019;-87
2022/10/29 11:31:41;;;;;;;6.20;2.13;;;16.60;99.90;;;;;;6128667;23;20079;-87
2022/10/29 11:34:16;;;;;;;5.97;2.27;;;16.70;99.90;;;;;;6070276;23;20025;-86
2022/10/29 11:36:57;;;;;;;3.25;1.73;;;16.70;99.90;;;;;;6070306;23;20298;-87
2022/10/29 11:39:54;;;;;;;4.65;2.10;;;16.80;99.90;;;;;;6119422;23;20460;-87
2022/10/29 11:42:20;;;;;;;3.60;1.65;;;16.80;99.90;;;;;;6070690;23;20026;-87
2022/10/29 11:44:46;;;;;;;3.50;1.65;;;16.90;99.90;;;;;;6094956;23;20465;-87
2022/10/29 11:47:26;;;;;;;10.55;2.72;;;17.00;99.90;;;;;;6070699;23;20023;-86
2022/10/29 11:50:23;;;;;;;4.53;1.70;;;17.00;99.90;;;;;;6094871;23;20011;-89
2022/10/29 11:52:52;;;;;;;3.63;1.90;;;17.10;99.90;;;;;;6070824;23;20022;-87
2022/10/29 11:55:22;;;;;;;6.60;1.73;;;17.70;99.90;;;;;;6094579;23;20066;-88
2022/10/29 11:57:53;;;;;;;3.47;1.23;;;17.20;99.90;;;;;;6070423;23;20028;-89
2022/10/29 12:00:21;;;;;;;4.32;1.85;;;17.30;99.90;;;;;;6066820;23;20089;-87
2022/10/29 12:03:07;;;;;;;4.85;2.28;;;17.30;99.90;;;;;;6118865;23;20477;-87
2022/10/29 12:06:00;;;;;;;5.65;1.95;;;17.40;99.90;;;;;;6094835;23;20093;-94
2022/10/29 12:08:44;;;;;;;4.18;1.95;;;17.50;99.90;;;;;;6152041;23;20025;-92
2022/10/29 12:11:48;;;;;;;6.10;1.80;;;17.60;99.90;;;;;;6215934;23;20324;-88
2022/10/29 12:14:42;;;;;;;3.95;1.30;;;17.70;99.90;;;;;;6244962;23;20051;-89
2022/10/29 12:17:08;;;;;;;4.53;1.40;;;17.60;99.90;;;;;;6248298;22;20031;-88
2022/10/29 12:19:45;;;;;;;2.60;1.00;;;17.70;99.90;;;;;;6244542;23;20068;-87
2022/10/29 12:22:30;;;;;;;2.30;1.20;;;17.80;99.90;;;;;;6244344;23;20020;-87
2022/10/29 12:25:06;;;;;;;3.95;1.50;;;17.90;99.90;;;;;;6244391;23;20063;-87
2022/10/29 12:27:50;;;;;;;2.75;1.10;;;17.90;99.90;;;;;;6245579;22;20438;-87
2022/10/29 12:30:17;;;;;;;7.25;1.38;;;18.00;99.90;;;;;;6245936;22;20061;-87
2022/10/29 12:32:58;;;;;;;4.38;1.40;;;18.10;99.90;;;;;;6244116;23;20104;-88
2022/10/29 12:35:45;;;;;;;4.53;1.40;;;18.10;99.90;;;;;;6246128;22;20012;-87
2022/10/29 12:38:38;;;;;;;4.35;1.40;;;18.10;99.90;;;;;;6245697;23;20462;-88
2022/10/29 12:41:08;;;;;;;4.63;1.35;;;18.30;99.90;;;;;;6245715;22;20382;-87
2022/10/29 12:43:37;;;;;;;5.10;1.60;;;18.00;99.90;;;;;;6244071;23;20328;-88
2022/10/29 12:46:30;;;;;;;3.83;1.45;;;18.00;99.90;;;;;;6246385;22;20016;-87
2022/10/29 12:49:29;;;;;;;3.60;1.15;;;18.00;99.90;;;;;;6245620;22;20027;-87
2022/10/29 12:52:00;;;;;;;3.30;1.45;;;18.10;99.90;;;;;;6182460;22;20395;-87
2022/10/29 12:54:35;;;;;;;5.10;1.80;;;18.20;99.90;;;;;;6182761;23;20111;-87
2022/10/29 12:57:33;;;;;;;4.63;1.35;;;18.30;99.90;;;;;;6182335;23;20472;-88
2022/10/29 13:00:23;;;;;;;3.60;1.63;;;18.40;99.90;;;;;;6182300;23;20021;-86
2022/10/29 13:02:50;;;;;;;5.57;2.00;;;18.50;99.90;;;;;;6182496;23;20021;-88
2022/10/29 13:05:25;;;;;;;3.10;1.65;;;18.60;99.90;;;;;;6182677;23;20125;-88
2022/10/29 13:07:56;;;;;;;5.55;2.10;;;18.60;99.90;;;;;;6182703;23;20032;-87
2022/10/29 13:10:27;;;;;;;7.18;2.30;;;18.60;99.90;;;;;;6183024;23;20355;-88
2022/10/29 13:13:06;;;;;;;3.25;1.85;;;18.60;99.90;;;;;;6182660;23;20024;-86
2022/10/29 13:16:07;;;;;;;2.40;1.52;;;18.50;99.90;;;;;;6182928;23;20039;-88
2022/10/29 13:18:38;;;;;;;3.65;1.83;;;18.50;99.90;;;;;;6094362;23;20038;-87
2022/10/29 13:21:04;;;;;;;4.57;1.95;;;18.50;99.90;;;;;;6093713;23;20058;-86
2022/10/29 13:23:33;;;;;;;3.95;2.30;;;18.50;99.90;;;;;;6070078;23;20101;-87
2022/10/29 13:26:01;;;;;;;4.40;1.55;;;18.50;99.90;;;;;;6094233;23;20124;-87
2022/10/29 13:28:27;;;;;;;2.92;1.45;;;18.50;99.90;;;;;;6107397;23;20029;-88
2022/10/29 13:31:12;;;;;;;4.88;1.77;;;18.60;99.90;;;;;;6098912;23;20026;-88
2022/10/29 13:33:38;;;;;;;4.75;2.13;;;18.70;99.90;;;;;;6123503;23;20116;-87
2022/10/29 13:36:23;;;;;;;5.63;2.25;;;18.70;99.90;;;;;;6123499;23;20049;-87
2022/10/29 13:38:49;;;;;;;3.25;1.95;;;18.80;99.90;;;;;;6098107;23;20033;-88
2022/10/29 13:41:22;;;;;;;6.90;2.35;;;18.80;99.90;;;;;;6099040;23;20022;-87
2022/10/29 13:44:03;;;;;;;3.72;1.95;;;18.80;99.90;;;;;;6098883;23;20025;-87
2022/10/29 13:46:53;;;;;;;4.88;1.70;;;18.90;99.90;;;;;;6123198;23;20018;-86
2022/10/29 13:49:28;;;;;;;5.93;1.58;;;18.90;99.90;;;;;;6123408;23;20022;-87
2022/10/29 13:52:10;;;;;;;4.20;1.90;;;18.90;99.90;;;;;;6123170;23;20021;-87
2022/10/29 13:54:41;;;;;;;4.72;1.90;;;18.90;99.90;;;;;;6208071;23;20023;-87
2022/10/29 13:57:17;;;;;;;3.75;1.52;;;19.00;99.90;;;;;;6243603;23;20026;-88
2022/10/29 13:59:49;;;;;;;;;;;19.00;99.90;;;;;;6246937;22;20026;-87
2022/10/29 14:02:32;;;;;;;4.88;1.60;;;19.00;99.90;;;;;;6276351;22;19915;-87
2022/10/29 14:05:08;;;;;;;7.82;2.20;;;19.00;99.90;;;;;;6276455;22;20023;-87
2022/10/29 14:07:59;;;;;;;3.70;1.75;;;19.00;99.90;;;;;;6276610;22;20027;-87
2022/10/29 14:10:40;;;;;;;4.05;2.05;;;18.90;99.90;;;;;;6276399;22;20026;-87
2022/10/29 14:13:26;;;;;;;1.98;1.20;;;19.00;99.90;;;;;;6248663;22;20057;-87
2022/10/29 14:16:23;;;;;;;5.22;2.00;;;19.00;99.90;;;;;;6276297;22;20015;-87
2022/10/29 14:18:49;;;;;;;4.93;1.80;;;19.10;99.90;;;;;;6247647;22;20020;-87
2022/10/29 14:21:24;;;;;;;6.53;2.03;;;19.10;99.90;;;;;;6249078;22;20011;-88
2022/10/29 14:23:56;;;;;;;3.67;1.63;;;19.10;99.90;;;;;;6249259;22;20087;-88
2022/10/29 14:26:23;;;;;;;4.38;1.70;;;19.10;99.90;;;;;;6250663;22;20031;-87
2022/10/29 14:28:50;;;;;;;6.07;1.80;;;19.10;99.90;;;;;;6250629;22;20018;-89
2022/10/29 14:31:19;;;;;;;3.78;1.83;;;19.10;99.90;;;;;;6250586;22;20030;-86
2022/10/29 14:33:51;;;;;;;4.28;1.95;;;19.10;99.90;;;;;;6250510;22;20015;-86
2022/10/29 14:36:32;;;;;;;3.45;1.50;;;19.00;99.90;;;;;;6250703;22;20024;-87
2022/10/29 14:39:22;;;;;;;3.55;2.28;;;19.00;99.90;;;;;;6278168;22;20012;-87
2022/10/29 14:41:50;;;;;;;4.00;2.08;;;18.90;99.90;;;;;;6250439;22;20023;-87
2022/10/29 14:44:29;;;;;;;5.80;2.03;;;18.90;99.90;;;;;;6276235;22;20019;-87
2022/10/29 14:47:02;;;;;;;7.53;1.70;;;19.00;99.90;;;;;;6250545;22;20016;-88
2022/10/29 14:49:29;;;;;;;5.68;1.70;;;18.80;99.90;;;;;;6277785;22;20012;-86
2022/10/29 14:52:03;;;;;;;3.60;1.60;;;18.70;99.90;;;;;;6277974;22;20019;-87
2022/10/29 14:54:38;;;;;;;4.93;2.00;;;18.70;99.90;;;;;;6277658;22;20031;-86
2022/10/29 14:57:10;;;;;;;5.18;2.10;;;18.60;99.90;;;;;;6277810;22;20273;-86
2022/10/29 14:59:37;;;;;;;7.82;2.47;;;18.60;99.90;;;;;;6277503;22;20443;-87
2022/10/29 15:02:11;;;;;;;5.13;2.20;;;18.60;99.90;;;;;;6278094;22;20045;-87
2022/10/29 15:04:48;;;;;;;7.25;3.15;;;18.70;99.90;;;;;;6250641;22;20097;-88
2022/10/29 15:07:28;;;;;;;3.53;1.95;;;18.50;99.90;;;;;;6277750;22;20023;-88
2022/10/29 15:10:15;;;;;;;4.00;2.13;;;18.50;99.90;;;;;;6250746;22;20458;-87
2022/10/29 15:12:41;;;;;;;5.70;2.08;;;18.50;99.90;;;;;;6277881;22;20039;-87
2022/10/29 15:15:17;;;;;;;5.47;1.95;;;18.50;99.90;;;;;;6277225;22;20541;-90
2022/10/29 15:18:03;;;;;;;5.55;2.08;;;18.50;99.90;;;;;;6250961;22;20024;-88
2022/10/29 15:20:38;;;;;;;3.25;1.50;;;18.50;99.90;;;;;;6251938;22;20016;-91
2022/10/29 15:23:04;;;;;;;4.43;1.88;;;18.50;99.90;;;;;;6250068;22;20070;-87
2022/10/29 15:25:38;;;;;;;4.85;1.90;;;18.50;99.90;;;;;;6249879;22;20384;-89
2022/10/29 15:28:09;;;;;;;4.28;2.00;;;18.50;99.90;;;;;;6225368;22;20019;-95
2022/10/29 15:30:37;;;;;;;4.72;1.83;;;18.50;99.90;;;;;;6249607;22;20015;-90
2022/10/29 15:33:09;;;;;;;5.13;1.95;;;18.40;99.90;;;;;;6277613;22;20027;-90
2022/10/29 15:35:42;;;;;;;4.32;1.80;;;18.30;99.90;;;;;;6277366;22;20012;-90
2022/10/29 15:38:26;;;;;;;5.78;1.98;;;18.30;99.90;;;;;;6277195;22;20020;-88
2022/10/29 15:41:06;;;;;;;4.70;2.25;;;18.20;99.90;;;;;;6275631;22;20019;-90
2022/10/29 15:43:32;;;;;;;3.95;2.47;;;18.10;99.90;;;;;;6249900;22;20434;-89
2022/10/29 15:45:58;;;;;;;4.70;2.03;;;18.10;99.90;;;;;;6250027;22;20050;-86
2022/10/29 15:48:36;;;;;;;6.07;2.15;;;18.00;99.90;;;;;;6277514;22;20014;-87
2022/10/29 15:51:03;;;;;;;6.65;2.45;;;17.90;99.90;;;;;;6277727;22;20065;-87
2022/10/29 15:53:28;;;;;;;4.85;2.22;;;17.90;99.90;;;;;;6249860;22;20019;-88
2022/10/29 15:55:54;;;;;;;5.65;2.83;;;17.80;99.90;;;;;;6277217;22;20012;-89
2022/10/29 15:58:22;;;;;;;5.47;2.50;;;17.70;99.90;;;;;;6249550;22;20019;-90
2022/10/29 16:00:53;;;;;;;4.45;2.28;;;17.70;99.90;;;;;;6249239;22;20016;-90
2022/10/29 16:03:26;;;;;;;5.78;2.35;;;17.60;99.90;;;;;;6277912;22;20023;-90
2022/10/29 16:06:02;;;;;;;5.72;2.60;;;17.50;99.90;;;;;;6276924;22;20069;-88
2022/10/29 16:08:41;;;;;;;5.85;2.35;;;17.50;99.90;;;;;;6250516;22;20019;-91
2022/10/29 16:11:13;;;;;;;6.00;2.55;;;17.40;99.90;;;;;;6249901;22;20023;-94
2022/10/29 16:13:39;;;;;;;5.47;2.63;;;17.30;99.90;;;;;;6249981;22;20027;-91
2022/10/29 16:16:47;;;;;;;7.25;2.33;;;17.30;99.90;;;;;;6249858;22;20028;-90
2022/10/29 16:19:13;;;;;;;7.05;3.10;;;17.20;99.90;;;;;;6158152;23;20025;-88
2022/10/29 16:21:39;;;;;;;7.47;3.10;;;17.10;99.90;;;;;;6157984;22;20090;-87
2022/10/29 16:24:05;;;;;;;7.00;3.40;;;17.00;99.90;;;;;;6158568;23;20038;-90
2022/10/29 16:26:31;;;;;;;8.10;3.58;;;16.90;99.90;;;;;;6158213;23;20063;-88
2022/10/29 16:28:57;;;;;;;5.28;2.85;;;16.90;99.90;;;;;;6133008;23;20017;-87
2022/10/29 16:31:27;;;;;;;7.50;3.65;;;16.90;99.90;;;;;;6183065;23;20102;-89
2022/10/29 16:34:00;;;;;;;7.75;3.55;;;16.80;99.90;;;;;;6158174;23;20100;-90
2022/10/29 16:36:29;;;;;;;5.18;2.88;;;16.70;99.90;;;;;;6158014;23;20392;-88
2022/10/29 16:38:54;;;;;;;7.57;2.90;;;16.70;99.90;;;;;;6157895;23;20352;-87
2022/10/29 16:41:20;;;;;;;5.90;2.53;;;16.60;99.90;;;;;;6157951;23;20185;-88
2022/10/29 16:43:46;;;;;;;5.38;3.28;;;16.60;99.90;;;;;;6157686;23;20105;-87
2022/10/29 16:46:15;;;;;;;7.75;3.15;;;16.50;99.90;;;;;;6158023;23;20021;-91
2022/10/29 16:48:44;;;;;;;6.00;2.58;;;16.60;99.90;;;;;;6157951;23;20021;-87
2022/10/29 16:51:10;;;;;;;8.60;3.50;;;16.40;99.90;;;;;;6157722;23;20325;-85
2022/10/29 16:53:35;;;;;;;7.32;3.55;;;16.40;99.90;;;;;;6186391;22;20155;-87
2022/10/29 16:56:01;;;;;;;4.82;2.95;;;16.40;99.90;;;;;;6276447;22;20018;-85
2022/10/29 16:58:27;;;;;;;7.25;3.00;;;16.40;99.90;;;;;;6248475;22;20023;-86
2022/10/29 17:01:07;;;;;;;4.45;2.60;;;16.40;99.90;;;;;;6248394;22;20030;-85
2022/10/29 17:03:34;;;;;;;5.45;2.90;;;16.40;99.90;;;;;;6248938;22;20032;-85
2022/10/29 17:06:05;;;;;;;4.80;2.40;;;16.20;99.90;;;;;;6275028;22;20327;-85
2022/10/29 17:08:32;;;;;;;5.28;2.50;;;16.30;99.90;;;;;;6249034;22;20007;-84
2022/10/29 17:10:59;;;;;;;6.15;3.08;;;16.20;99.90;;;;;;6276372;22;20328;-85
2022/10/29 17:13:25;;;;;;;6.28;3.00;;;16.20;99.90;;;;;;6275498;22;20398;-84
2022/10/29 17:15:52;;;;;;;5.63;2.95;;;16.20;99.90;;;;;;6276659;22;20019;-86
2022/10/29 17:18:18;;;;;;;6.88;3.03;;;16.10;99.90;;;;;;6276043;22;20019;-85
2022/10/29 17:20:54;;;;;;;10.15;3.08;;;16.00;99.90;;;;;;6276147;22;20091;-86
2022/10/29 17:23:19;;;;;;;8.23;3.38;;;16.00;99.90;;;;;;6249031;22;20057;-85
2022/10/29 17:25:45;;;;;;;7.97;3.15;;;16.00;99.90;;;;;;6276365;22;20016;-85
2022/10/29 17:28:11;;;;;;;6.38;3.00;;;16.60;99.90;;;;;;6275921;22;20039;-86
2022/10/29 17:30:38;;;;;;;8.13;3.25;;;15.90;99.90;;;;;;6275856;22;20338;-87
2022/10/29 17:33:04;;;;;;;6.68;2.80;;;16.40;99.90;;;;;;6249315;22;20016;-85
2022/10/29 17:35:30;;;;;;;5.90;3.03;;;15.80;99.90;;;;;;6276459;22;20011;-87
2022/10/29 17:37:58;;;;;;;7.55;3.10;;;15.80;99.90;;;;;;6249233;22;20117;-90
2022/10/29 17:40:27;;;;;;;6.07;2.97;;;15.80;99.90;;;;;;6249122;22;20012;-91
2022/10/29 17:45:51;;;;;;;3.97;2.63;;;15.70;99.90;;;;;;6187847;22;20107;-91
2022/10/29 17:48:17;;;;;;;4.00;1.95;;;15.70;99.90;;;;;;6224518;22;20024;-86
2022/10/29 17:50:57;;;;;;;4.60;2.65;;;15.70;99.90;;;;;;6249467;22;20035;-90
2022/10/29 17:53:26;;;;;;;5.25;1.98;;;15.60;99.90;;;;;;6276434;22;20087;-90
2022/10/29 17:55:52;;;;;;;4.03;2.38;;;15.60;99.90;;;;;;6248594;22;20532;-88
2022/10/29 17:58:19;;;;;;;4.97;2.25;;;15.60;99.90;;;;;;6248673;22;20125;-87
2022/10/29 18:00:47;;;;;;;5.07;2.35;;;15.60;99.90;;;;;;6250759;22;20012;-87
2022/10/29 18:03:13;;;;;;;3.75;2.00;;;15.50;99.90;;;;;;6251215;22;20077;-88
2022/10/29 18:05:38;;;;;;;5.80;2.25;;;15.50;99.90;;;;;;6251333;22;20031;-88
2022/10/29 18:08:04;;;;;;;4.85;2.38;;;15.50;99.90;;;;;;6251734;22;20011;-87
2022/10/29 18:10:31;;;;;;;4.38;2.25;;;15.50;99.90;;;;;;6279383;22;20023;-88
2022/10/29 18:12:57;;;;;;;4.18;2.03;;;15.40;99.90;;;;;;6251079;22;20020;-88
2022/10/29 18:15:23;;;;;;;5.10;2.28;;;15.40;99.90;;;;;;6251451;22;20015;-88
2022/10/29 18:17:49;;;;;;;5.20;2.67;;;15.40;99.90;;;;;;6250797;22;20030;-89
2022/10/29 18:20:14;;;;;;;3.78;2.50;;;15.40;99.90;;;;;;6251464;22;20091;-88
2022/10/29 18:22:40;;;;;;;3.83;2.20;;;15.30;99.90;;;;;;6250672;22;20084;-88
2022/10/29 18:25:06;;;;;;;5.07;2.00;;;15.40;99.90;;;;;;6250392;22;20024;-88
2022/10/29 18:27:32;;;;;;;3.78;2.05;;;15.30;99.90;;;;;;6250679;22;20389;-88
2022/10/29 18:29:58;;;;;;;7.10;2.83;;;15.30;99.90;;;;;;6250590;22;20020;-84
2022/10/29 18:32:23;;;;;;;6.03;3.10;;;15.20;99.90;;;;;;6251313;22;20020;-87
2022/10/29 18:34:49;;;;;;;4.97;2.40;;;15.20;99.90;;;;;;6278453;22;20015;-87